sensor_id;sensor_type;location;lat;lon;timestamp;temperature;humidity
14006;DHT22;7078;51.542;7.314;2022-10-30T00:00:08;17.70;99.90
14006;DHT22;7078;51.542;7.314;2022-10-30T00:02:34;17.70;99.90
14006;DHT22;7078;51.542;7.314;2022-10-30T00:04:59;17.60;99.90
14006;DHT22;7078;51.542;7.314;2022-10-30T00:07:25;17.60;99.90
14006;DHT22;7078;51.542;7.314;2022-10-30T00:09:50;17.60;99.90
14006;DHT22;7078;51.542;7.314;2022-10-30T00:12:16;17.60;99.90
14006;DHT22;7078;51.542;7.314;2022-10-30T00:14:41;17.60;99.90
14006;DHT22;7078;51.542;7.314;2022-10-30T00:17:07;17.60;99.90
14006;DHT22;7078;51.542;7.314;2022-10-30T00:19:32;17.60;99.90
14006;DHT22;7078;51.542;7.314;2022-10-30T00:21:58;17.50;99.90
14006;DHT22;7078;51.542;7.314;2022-10-30T00:24:27;17.50;99.90
14006;DHT22;7078;51.542;7.314;2022-10-30T00:26:53;17.50;99.90
14006;DHT22;7078;51.542;7.314;2022-10-30T00:29:18;17.50;99.90
14006;DHT22;7078;51.542;7.314;2022-10-30T00:31:44;17.50;99.90
14006;DHT22;7078;51.542;7.314;2022-10-30T00:34:10;17.50;99.90
14006;DHT22;7078;51.542;7.314;2022-10-30T00:36:35;17.50;99.90
14006;DHT22;7078;51.542;7.314;2022-10-30T00:39:01;17.50;99.90
14006;DHT22;7078;51.542;7.314;2022-10-30T00:41:26;17.50;99.90
14006;DHT22;7078;51.542;7.314;2022-10-30T00:43:52;17.50;99.90
14006;DHT22;7078;51.542;7.314;2022-10-30T00:46:25;17.50;99.90
14006;DHT22;7078;51.542;7.314;2022-10-30T00:49:02;17.50;99.90
14006;DHT22;7078;51.542;7.314;2022-10-30T00:51:31;17.50;99.90
14006;DHT22;7078;51.542;7.314;2022-10-30T00:53:59;17.50;99.90
14006;DHT22;7078;51.542;7.314;2022-10-30T00:56:26;17.40;99.90
14006;DHT22;7078;51.542;7.314;2022-10-30T00:58:58;17.40;99.90
14006;DHT22;7078;51.542;7.314;2022-10-30T01:01:27;17.50;99.90
14006;DHT22;7078;51.542;7.314;2022-10-30T01:03:55;17.50;99.90
14006;DHT22;7078;51.542;7.314;2022-10-30T01:06:23;17.50;99.90
14006;DHT22;7078;51.542;7.314;2022-10-30T01:08:49;17.40;99.90
14006;DHT22;7078;51.542;7.314;2022-10-30T01:11:16;17.40;99.90
14006;DHT22;7078;51.542;7.314;2022-10-30T01:13:43;17.30;99.90
14006;DHT22;7078;51.542;7.314;2022-10-30T01:24:53;17.10;99.90
14006;DHT22;7078;51.542;7.314;2022-10-30T01:27:29;17.10;99.90
14006;DHT22;7078;51.542;7.314;2022-10-30T01:32:44;17.10;99.90
14006;DHT22;7078;51.542;7.314;2022-10-30T01:38:06;17.10;99.90
14006;DHT22;7078;51.542;7.314;2022-10-30T01:40:33;17.10;99.90
14006;DHT22;7078;51.542;7.314;2022-10-30T01:42:58;17.10;99.90
14006;DHT22;7078;51.542;7.314;2022-10-30T01:51:03;17.20;99.90
14006;DHT22;7078;51.542;7.314;2022-10-30T01:56:40;17.10;99.90
14006;DHT22;7078;51.542;7.314;2022-10-30T01:59:12;17.10;99.90
14006;DHT22;7078;51.542;7.314;2022-10-30T02:01:39;17.10;99.90
14006;DHT22;7078;51.542;7.314;2022-10-30T02:04:07;17.10;99.90
14006;DHT22;7078;51.542;7.314;2022-10-30T02:06:34;17.00;99.90
14006;DHT22;7078;51.542;7.314;2022-10-30T02:09:00;17.00;99.90
14006;DHT22;7078;51.542;7.314;2022-10-30T02:11:26;17.00;99.90
14006;DHT22;7078;51.542;7.314;2022-10-30T02:13:54;16.90;99.90
14006;DHT22;7078;51.542;7.314;2022-10-30T02:16:21;16.90;99.90
14006;DHT22;7078;51.542;7.314;2022-10-30T02:18:47;16.90;99.90
14006;DHT22;7078;51.542;7.314;2022-10-30T02:21:13;16.90;99.90
14006;DHT22;7078;51.542;7.314;2022-10-30T02:23:39;16.90;99.90
14006;DHT22;7078;51.542;7.314;2022-10-30T02:26:04;16.90;99.90
14006;DHT22;7078;51.542;7.314;2022-10-30T02:28:30;16.90;99.90
14006;DHT22;7078;51.542;7.314;2022-10-30T02:30:57;16.90;99.90
14006;DHT22;7078;51.542;7.314;2022-10-30T02:33:22;16.90;99.90
14006;DHT22;7078;51.542;7.314;2022-10-30T02:35:49;16.90;99.90
14006;DHT22;7078;51.542;7.314;2022-10-30T02:38:15;16.80;99.90
14006;DHT22;7078;51.542;7.314;2022-10-30T02:40:40;16.80;99.90
14006;DHT22;7078;51.542;7.314;2022-10-30T02:43:06;16.80;99.90
14006;DHT22;7078;51.542;7.314;2022-10-30T02:45:31;16.80;99.90
14006;DHT22;7078;51.542;7.314;2022-10-30T02:47:58;16.70;99.90
14006;DHT22;7078;51.542;7.314;2022-10-30T02:50:24;16.70;99.90
14006;DHT22;7078;51.542;7.314;2022-10-30T02:52:50;16.60;99.90
14006;DHT22;7078;51.542;7.314;2022-10-30T02:55:15;16.60;99.90
14006;DHT22;7078;51.542;7.314;2022-10-30T02:57:41;16.50;99.90
14006;DHT22;7078;51.542;7.314;2022-10-30T03:00:07;16.50;99.90
14006;DHT22;7078;51.542;7.314;2022-10-30T03:02:32;16.50;99.90
14006;DHT22;7078;51.542;7.314;2022-10-30T03:04:58;16.40;99.90
14006;DHT22;7078;51.542;7.314;2022-10-30T03:07:23;16.40;99.90
14006;DHT22;7078;51.542;7.314;2022-10-30T03:09:49;16.30;99.90
14006;DHT22;7078;51.542;7.314;2022-10-30T03:12:16;16.30;99.90
14006;DHT22;7078;51.542;7.314;2022-10-30T03:14:42;16.20;99.90
14006;DHT22;7078;51.542;7.314;2022-10-30T03:17:07;16.20;99.90
14006;DHT22;7078;51.542;7.314;2022-10-30T03:19:33;16.10;99.90
14006;DHT22;7078;51.542;7.314;2022-10-30T03:21:59;16.10;99.90
14006;DHT22;7078;51.542;7.314;2022-10-30T03:24:25;16.00;99.90
14006;DHT22;7078;51.542;7.314;2022-10-30T03:26:50;16.00;99.90
14006;DHT22;7078;51.542;7.314;2022-10-30T03:29:16;16.00;99.90
14006;DHT22;7078;51.542;7.314;2022-10-30T03:31:42;16.00;99.90
14006;DHT22;7078;51.542;7.314;2022-10-30T03:34:07;16.00;99.90
14006;DHT22;7078;51.542;7.314;2022-10-30T03:36:33;15.90;99.90
14006;DHT22;7078;51.542;7.314;2022-10-30T03:38:58;15.90;99.90
14006;DHT22;7078;51.542;7.314;2022-10-30T03:41:24;15.80;99.90
14006;DHT22;7078;51.542;7.314;2022-10-30T03:43:49;15.90;99.90
14006;DHT22;7078;51.542;7.314;2022-10-30T03:46:15;15.80;99.90
14006;DHT22;7078;51.542;7.314;2022-10-30T03:48:41;15.80;99.90
14006;DHT22;7078;51.542;7.314;2022-10-30T03:51:06;15.80;99.90
14006;DHT22;7078;51.542;7.314;2022-10-30T03:53:32;15.70;99.90
14006;DHT22;7078;51.542;7.314;2022-10-30T03:55:59;15.80;99.90
14006;DHT22;7078;51.542;7.314;2022-10-30T03:58:26;15.80;99.90
14006;DHT22;7078;51.542;7.314;2022-10-30T04:00:52;15.80;99.90
14006;DHT22;7078;51.542;7.314;2022-10-30T04:03:18;15.80;99.90
14006;DHT22;7078;51.542;7.314;2022-10-30T04:05:43;15.80;99.90
14006;DHT22;7078;51.542;7.314;2022-10-30T04:08:13;15.80;99.90
14006;DHT22;7078;51.542;7.314;2022-10-30T04:10:42;15.80;99.90
14006;DHT22;7078;51.542;7.314;2022-10-30T04:13:09;15.70;99.90
14006;DHT22;7078;51.542;7.314;2022-10-30T04:15:35;15.70;99.90
14006;DHT22;7078;51.542;7.314;2022-10-30T04:18:02;15.70;99.90
14006;DHT22;7078;51.542;7.314;2022-10-30T04:20:28;15.70;99.90
14006;DHT22;7078;51.542;7.314;2022-10-30T04:22:59;15.70;99.90
14006;DHT22;7078;51.542;7.314;2022-10-30T04:25:26;15.70;99.90
14006;DHT22;7078;51.542;7.314;2022-10-30T04:27:51;15.70;99.90
14006;DHT22;7078;51.542;7.314;2022-10-30T04:30:18;15.70;99.90
14006;DHT22;7078;51.542;7.314;2022-10-30T04:32:49;15.60;99.90
14006;DHT22;7078;51.542;7.314;2022-10-30T04:35:16;15.60;99.90
14006;DHT22;7078;51.542;7.314;2022-10-30T04:37:43;15.60;99.90
14006;DHT22;7078;51.542;7.314;2022-10-30T04:40:15;15.50;99.90
14006;DHT22;7078;51.542;7.314;2022-10-30T04:42:41;15.50;99.90
14006;DHT22;7078;51.542;7.314;2022-10-30T04:45:07;15.50;99.90
14006;DHT22;7078;51.542;7.314;2022-10-30T04:47:32;15.40;99.90
14006;DHT22;7078;51.542;7.314;2022-10-30T04:49:58;15.30;99.90
14006;DHT22;7078;51.542;7.314;2022-10-30T04:52:24;15.30;99.90
14006;DHT22;7078;51.542;7.314;2022-10-30T04:54:49;15.20;99.90
14006;DHT22;7078;51.542;7.314;2022-10-30T04:57:15;15.20;99.90
14006;DHT22;7078;51.542;7.314;2022-10-30T04:59:40;15.20;99.90
14006;DHT22;7078;51.542;7.314;2022-10-30T05:02:06;15.20;99.90
14006;DHT22;7078;51.542;7.314;2022-10-30T05:04:31;15.20;99.90
14006;DHT22;7078;51.542;7.314;2022-10-30T05:06:57;15.20;99.90
14006;DHT22;7078;51.542;7.314;2022-10-30T05:09:22;15.10;99.90
14006;DHT22;7078;51.542;7.314;2022-10-30T05:11:48;15.10;99.90
14006;DHT22;7078;51.542;7.314;2022-10-30T05:14:13;15.10;99.90
14006;DHT22;7078;51.542;7.314;2022-10-30T05:16:39;15.10;99.90
14006;DHT22;7078;51.542;7.314;2022-10-30T05:19:04;15.10;99.90
14006;DHT22;7078;51.542;7.314;2022-10-30T05:21:30;15.00;99.90
14006;DHT22;7078;51.542;7.314;2022-10-30T05:23:55;15.00;99.90
14006;DHT22;7078;51.542;7.314;2022-10-30T05:26:21;14.90;99.90
14006;DHT22;7078;51.542;7.314;2022-10-30T05:28:46;14.90;99.90
14006;DHT22;7078;51.542;7.314;2022-10-30T05:31:12;14.90;99.90
14006;DHT22;7078;51.542;7.314;2022-10-30T05:33:37;14.90;99.90
14006;DHT22;7078;51.542;7.314;2022-10-30T05:36:03;14.90;99.90
14006;DHT22;7078;51.542;7.314;2022-10-30T05:38:29;14.90;99.90
14006;DHT22;7078;51.542;7.314;2022-10-30T05:40:54;14.90;99.90
14006;DHT22;7078;51.542;7.314;2022-10-30T05:43:20;14.90;99.90
14006;DHT22;7078;51.542;7.314;2022-10-30T05:45:48;15.00;99.90
14006;DHT22;7078;51.542;7.314;2022-10-30T05:48:14;14.90;99.90
14006;DHT22;7078;51.542;7.314;2022-10-30T05:50:39;14.90;99.90
14006;DHT22;7078;51.542;7.314;2022-10-30T05:53:05;14.90;99.90
14006;DHT22;7078;51.542;7.314;2022-10-30T05:55:31;14.90;99.90
14006;DHT22;7078;51.542;7.314;2022-10-30T05:57:58;14.90;99.90
14006;DHT22;7078;51.542;7.314;2022-10-30T06:00:24;14.90;99.90
14006;DHT22;7078;51.542;7.314;2022-10-30T06:02:50;14.90;99.90
14006;DHT22;7078;51.542;7.314;2022-10-30T06:05:15;14.80;99.90
14006;DHT22;7078;51.542;7.314;2022-10-30T06:07:41;14.80;99.90
14006;DHT22;7078;51.542;7.314;2022-10-30T06:10:07;14.80;99.90
14006;DHT22;7078;51.542;7.314;2022-10-30T06:12:32;14.80;99.90
14006;DHT22;7078;51.542;7.314;2022-10-30T06:14:58;14.80;99.90
14006;DHT22;7078;51.542;7.314;2022-10-30T06:17:23;14.80;99.90
14006;DHT22;7078;51.542;7.314;2022-10-30T06:19:49;14.70;99.90
14006;DHT22;7078;51.542;7.314;2022-10-30T06:22:14;14.70;99.90
14006;DHT22;7078;51.542;7.314;2022-10-30T06:24:40;14.70;99.90
14006;DHT22;7078;51.542;7.314;2022-10-30T06:27:05;14.70;99.90
14006;DHT22;7078;51.542;7.314;2022-10-30T06:29:31;14.60;99.90
14006;DHT22;7078;51.542;7.314;2022-10-30T06:31:56;14.70;99.90
14006;DHT22;7078;51.542;7.314;2022-10-30T06:34:22;14.70;99.90
14006;DHT22;7078;51.542;7.314;2022-10-30T06:36:48;14.80;99.90
14006;DHT22;7078;51.542;7.314;2022-10-30T06:39:13;14.80;99.90
14006;DHT22;7078;51.542;7.314;2022-10-30T06:41:39;14.70;99.90
14006;DHT22;7078;51.542;7.314;2022-10-30T06:44:04;14.70;99.90
14006;DHT22;7078;51.542;7.314;2022-10-30T06:46:30;14.60;99.90
14006;DHT22;7078;51.542;7.314;2022-10-30T06:48:55;14.60;99.90
14006;DHT22;7078;51.542;7.314;2022-10-30T06:51:21;14.50;99.90
14006;DHT22;7078;51.542;7.314;2022-10-30T06:53:46;14.50;99.90
14006;DHT22;7078;51.542;7.314;2022-10-30T06:56:12;14.40;99.90
14006;DHT22;7078;51.542;7.314;2022-10-30T06:58:37;14.40;99.90
14006;DHT22;7078;51.542;7.314;2022-10-30T07:01:06;14.40;99.90
14006;DHT22;7078;51.542;7.314;2022-10-30T07:03:33;14.40;99.90
14006;DHT22;7078;51.542;7.314;2022-10-30T07:05:59;14.50;99.90
14006;DHT22;7078;51.542;7.314;2022-10-30T07:08:24;14.50;99.90
14006;DHT22;7078;51.542;7.314;2022-10-30T07:10:50;14.50;99.90
14006;DHT22;7078;51.542;7.314;2022-10-30T07:13:16;14.50;99.90
14006;DHT22;7078;51.542;7.314;2022-10-30T07:15:41;14.60;99.90
14006;DHT22;7078;51.542;7.314;2022-10-30T07:18:08;14.70;99.90
14006;DHT22;7078;51.542;7.314;2022-10-30T07:20:34;14.70;99.90
14006;DHT22;7078;51.542;7.314;2022-10-30T07:23:00;14.80;99.90
14006;DHT22;7078;51.542;7.314;2022-10-30T07:25:26;14.90;99.90
14006;DHT22;7078;51.542;7.314;2022-10-30T07:27:53;14.90;99.90
14006;DHT22;7078;51.542;7.314;2022-10-30T07:30:21;15.00;99.90
14006;DHT22;7078;51.542;7.314;2022-10-30T07:33:04;15.10;99.90
14006;DHT22;7078;51.542;7.314;2022-10-30T07:35:32;15.20;99.90
14006;DHT22;7078;51.542;7.314;2022-10-30T07:38:05;15.30;99.90
14006;DHT22;7078;51.542;7.314;2022-10-30T07:40:31;15.30;99.90
14006;DHT22;7078;51.542;7.314;2022-10-30T07:42:58;15.40;99.90
14006;DHT22;7078;51.542;7.314;2022-10-30T07:45:24;15.50;99.90
14006;DHT22;7078;51.542;7.314;2022-10-30T07:47:50;15.60;99.90
14006;DHT22;7078;51.542;7.314;2022-10-30T07:50:16;15.60;99.90
14006;DHT22;7078;51.542;7.314;2022-10-30T07:52:42;15.70;99.90
14006;DHT22;7078;51.542;7.314;2022-10-30T07:55:07;15.80;99.90
14006;DHT22;7078;51.542;7.314;2022-10-30T07:57:37;15.90;99.90
14006;DHT22;7078;51.542;7.314;2022-10-30T08:00:08;15.90;99.90
14006;DHT22;7078;51.542;7.314;2022-10-30T08:02:34;16.00;99.90
14006;DHT22;7078;51.542;7.314;2022-10-30T08:05:00;16.10;99.90
14006;DHT22;7078;51.542;7.314;2022-10-30T08:07:30;16.10;99.90
14006;DHT22;7078;51.542;7.314;2022-10-30T08:09:56;16.20;99.90
14006;DHT22;7078;51.542;7.314;2022-10-30T08:12:22;16.30;99.90
14006;DHT22;7078;51.542;7.314;2022-10-30T08:14:48;16.30;99.90
14006;DHT22;7078;51.542;7.314;2022-10-30T08:17:13;16.40;99.90
14006;DHT22;7078;51.542;7.314;2022-10-30T08:19:39;16.40;99.90
14006;DHT22;7078;51.542;7.314;2022-10-30T08:22:05;16.50;99.90
14006;DHT22;7078;51.542;7.314;2022-10-30T08:24:31;16.60;99.90
14006;DHT22;7078;51.542;7.314;2022-10-30T08:26:56;16.70;99.90
14006;DHT22;7078;51.542;7.314;2022-10-30T08:29:22;16.80;99.90
14006;DHT22;7078;51.542;7.314;2022-10-30T08:31:48;17.00;99.90
14006;DHT22;7078;51.542;7.314;2022-10-30T08:34:13;17.10;99.90
14006;DHT22;7078;51.542;7.314;2022-10-30T08:36:39;17.10;99.90
14006;DHT22;7078;51.542;7.314;2022-10-30T08:39:05;17.20;99.90
14006;DHT22;7078;51.542;7.314;2022-10-30T08:41:30;17.30;99.90
14006;DHT22;7078;51.542;7.314;2022-10-30T08:43:55;17.30;99.90
14006;DHT22;7078;51.542;7.314;2022-10-30T08:46:21;17.50;99.90
14006;DHT22;7078;51.542;7.314;2022-10-30T08:48:47;17.60;99.90
14006;DHT22;7078;51.542;7.314;2022-10-30T08:51:12;17.70;99.90
14006;DHT22;7078;51.542;7.314;2022-10-30T08:53:39;17.80;99.90
14006;DHT22;7078;51.542;7.314;2022-10-30T08:56:05;17.90;99.90
14006;DHT22;7078;51.542;7.314;2022-10-30T08:58:30;18.00;99.90
14006;DHT22;7078;51.542;7.314;2022-10-30T09:00:56;18.30;99.90
14006;DHT22;7078;51.542;7.314;2022-10-30T09:03:21;18.20;99.90
14006;DHT22;7078;51.542;7.314;2022-10-30T09:05:47;18.30;99.90
14006;DHT22;7078;51.542;7.314;2022-10-30T09:08:13;18.30;99.90
14006;DHT22;7078;51.542;7.314;2022-10-30T09:10:39;18.40;99.90
14006;DHT22;7078;51.542;7.314;2022-10-30T09:13:04;18.50;99.90
14006;DHT22;7078;51.542;7.314;2022-10-30T09:15:30;18.60;99.90
14006;DHT22;7078;51.542;7.314;2022-10-30T09:17:57;18.60;99.90
14006;DHT22;7078;51.542;7.314;2022-10-30T09:20:23;18.70;99.90
14006;DHT22;7078;51.542;7.314;2022-10-30T09:22:49;18.80;99.90
14006;DHT22;7078;51.542;7.314;2022-10-30T09:25:14;18.90;99.90
14006;DHT22;7078;51.542;7.314;2022-10-30T09:27:41;19.00;99.90
14006;DHT22;7078;51.542;7.314;2022-10-30T09:30:07;19.00;99.90
14006;DHT22;7078;51.542;7.314;2022-10-30T09:32:33;19.00;99.90
14006;DHT22;7078;51.542;7.314;2022-10-30T09:34:58;19.10;99.90
14006;DHT22;7078;51.542;7.314;2022-10-30T09:37:24;19.10;99.90
14006;DHT22;7078;51.542;7.314;2022-10-30T09:39:50;19.20;99.90
14006;DHT22;7078;51.542;7.314;2022-10-30T09:42:39;19.30;99.90
14006;DHT22;7078;51.542;7.314;2022-10-30T09:46:10;19.30;99.90
14006;DHT22;7078;51.542;7.314;2022-10-30T09:56:55;19.70;99.90
14006;DHT22;7078;51.542;7.314;2022-10-30T10:02:13;19.90;99.90
14006;DHT22;7078;51.542;7.314;2022-10-30T10:04:51;20.10;99.90
14006;DHT22;7078;51.542;7.314;2022-10-30T10:07:26;20.10;99.90
14006;DHT22;7078;51.542;7.314;2022-10-30T10:09:59;20.30;99.90
14006;DHT22;7078;51.542;7.314;2022-10-30T10:15:45;20.40;99.40
14006;DHT22;7078;51.542;7.314;2022-10-30T10:18:22;20.50;97.20
14006;DHT22;7078;51.542;7.314;2022-10-30T10:20:52;20.60;96.20
14006;DHT22;7078;51.542;7.314;2022-10-30T10:23:34;20.60;95.60
14006;DHT22;7078;51.542;7.314;2022-10-30T10:26:11;20.60;93.50
14006;DHT22;7078;51.542;7.314;2022-10-30T10:28:51;20.80;93.40
14006;DHT22;7078;51.542;7.314;2022-10-30T10:36:41;21.00;94.60
14006;DHT22;7078;51.542;7.314;2022-10-30T10:39:39;21.00;94.00
14006;DHT22;7078;51.542;7.314;2022-10-30T10:50:22;21.40;92.30
14006;DHT22;7078;51.542;7.314;2022-10-30T10:52:56;21.40;90.90
14006;DHT22;7078;51.542;7.314;2022-10-30T10:55:28;21.40;90.30
14006;DHT22;7078;51.542;7.314;2022-10-30T10:57:58;21.50;90.80
14006;DHT22;7078;51.542;7.314;2022-10-30T11:00:28;21.50;90.30
14006;DHT22;7078;51.542;7.314;2022-10-30T11:03:04;21.50;89.40
14006;DHT22;7078;51.542;7.314;2022-10-30T11:05:34;21.60;90.20
14006;DHT22;7078;51.542;7.314;2022-10-30T11:08:29;21.60;89.40
14006;DHT22;7078;51.542;7.314;2022-10-30T11:10:57;21.60;87.60
14006;DHT22;7078;51.542;7.314;2022-10-30T11:13:49;21.70;88.00
14006;DHT22;7078;51.542;7.314;2022-10-30T11:16:35;21.80;87.60
14006;DHT22;7078;51.542;7.314;2022-10-30T11:19:07;21.80;86.00
14006;DHT22;7078;51.542;7.314;2022-10-30T11:21:37;21.80;86.60
14006;DHT22;7078;51.542;7.314;2022-10-30T11:24:31;21.80;86.30
14006;DHT22;7078;51.542;7.314;2022-10-30T11:27:16;21.90;85.50
14006;DHT22;7078;51.542;7.314;2022-10-30T11:29:55;21.90;85.40
14006;DHT22;7078;51.542;7.314;2022-10-30T11:32:26;21.90;85.60
14006;DHT22;7078;51.542;7.314;2022-10-30T11:37:35;22.00;85.50
14006;DHT22;7078;51.542;7.314;2022-10-30T11:42:34;22.10;86.10
14006;DHT22;7078;51.542;7.314;2022-10-30T11:45:01;22.20;85.80
14006;DHT22;7078;51.542;7.314;2022-10-30T11:47:32;22.20;85.80
14006;DHT22;7078;51.542;7.314;2022-10-30T11:50:19;22.30;84.40
14006;DHT22;7078;51.542;7.314;2022-10-30T11:52:47;22.40;83.40
14006;DHT22;7078;51.542;7.314;2022-10-30T11:55:26;22.30;81.70
14006;DHT22;7078;51.542;7.314;2022-10-30T11:57:55;22.30;82.00
14006;DHT22;7078;51.542;7.314;2022-10-30T12:02:50;22.40;81.00
14006;DHT22;7078;51.542;7.314;2022-10-30T12:05:35;22.50;78.40
14006;DHT22;7078;51.542;7.314;2022-10-30T12:11:00;22.50;78.80
14006;DHT22;7078;51.542;7.314;2022-10-30T12:13:36;22.50;77.20
14006;DHT22;7078;51.542;7.314;2022-10-30T12:16:14;22.50;77.70
14006;DHT22;7078;51.542;7.314;2022-10-30T12:18:40;22.60;77.40
14006;DHT22;7078;51.542;7.314;2022-10-30T12:21:06;22.60;75.10
14006;DHT22;7078;51.542;7.314;2022-10-30T12:23:31;22.60;75.70
14006;DHT22;7078;51.542;7.314;2022-10-30T12:26:00;22.60;76.80
14006;DHT22;7078;51.542;7.314;2022-10-30T12:28:30;22.70;75.90
14006;DHT22;7078;51.542;7.314;2022-10-30T12:36:16;22.70;77.70
14006;DHT22;7078;51.542;7.314;2022-10-30T12:39:29;22.70;75.90
14006;DHT22;7078;51.542;7.314;2022-10-30T12:42:07;22.70;75.70
14006;DHT22;7078;51.542;7.314;2022-10-30T12:44:38;22.70;76.30
14006;DHT22;7078;51.542;7.314;2022-10-30T12:49:50;22.60;75.70
14006;DHT22;7078;51.542;7.314;2022-10-30T12:57:34;22.50;74.40
14006;DHT22;7078;51.542;7.314;2022-10-30T13:00:11;22.40;75.70
14006;DHT22;7078;51.542;7.314;2022-10-30T13:05:55;22.30;76.70
14006;DHT22;7078;51.542;7.314;2022-10-30T13:08:24;22.20;77.80
14006;DHT22;7078;51.542;7.314;2022-10-30T13:11:13;22.20;78.40
14006;DHT22;7078;51.542;7.314;2022-10-30T13:13:44;22.20;78.90
14006;DHT22;7078;51.542;7.314;2022-10-30T13:16:21;22.30;79.70
14006;DHT22;7078;51.542;7.314;2022-10-30T13:18:48;22.30;80.20
14006;DHT22;7078;51.542;7.314;2022-10-30T13:24:04;22.20;81.30
14006;DHT22;7078;51.542;7.314;2022-10-30T13:26:46;22.20;81.90
14006;DHT22;7078;51.542;7.314;2022-10-30T13:29:18;22.20;79.90
14006;DHT22;7078;51.542;7.314;2022-10-30T13:32:04;22.20;80.70
14006;DHT22;7078;51.542;7.314;2022-10-30T13:34:50;22.20;81.00
14006;DHT22;7078;51.542;7.314;2022-10-30T13:37:38;22.20;82.20
14006;DHT22;7078;51.542;7.314;2022-10-30T13:40:18;22.20;78.60
14006;DHT22;7078;51.542;7.314;2022-10-30T13:42:51;22.30;78.10
14006;DHT22;7078;51.542;7.314;2022-10-30T13:51:27;22.30;76.60
14006;DHT22;7078;51.542;7.314;2022-10-30T13:56:43;22.20;76.10
14006;DHT22;7078;51.542;7.314;2022-10-30T14:02:23;22.20;76.40
14006;DHT22;7078;51.542;7.314;2022-10-30T14:05:04;22.20;76.80
14006;DHT22;7078;51.542;7.314;2022-10-30T14:15:45;22.10;80.30
14006;DHT22;7078;51.542;7.314;2022-10-30T14:20:44;22.10;80.20
14006;DHT22;7078;51.542;7.314;2022-10-30T14:28:28;22.00;80.80
14006;DHT22;7078;51.542;7.314;2022-10-30T14:31:06;21.90;81.20
14006;DHT22;7078;51.542;7.314;2022-10-30T14:33:43;21.90;82.00
14006;DHT22;7078;51.542;7.314;2022-10-30T14:38:39;21.80;82.80
14006;DHT22;7078;51.542;7.314;2022-10-30T14:43:55;21.80;84.00
14006;DHT22;7078;51.542;7.314;2022-10-30T14:46:50;21.70;86.50
14006;DHT22;7078;51.542;7.314;2022-10-30T14:49:41;21.60;86.20
14006;DHT22;7078;51.542;7.314;2022-10-30T14:52:14;21.60;87.60
14006;DHT22;7078;51.542;7.314;2022-10-30T14:54:50;21.50;88.40
14006;DHT22;7078;51.542;7.314;2022-10-30T14:57:42;21.50;90.00
14006;DHT22;7078;51.542;7.314;2022-10-30T15:02:56;21.40;91.10
14006;DHT22;7078;51.542;7.314;2022-10-30T15:16:55;21.00;95.30
14006;DHT22;7078;51.542;7.314;2022-10-30T15:19:22;20.90;97.70
14006;DHT22;7078;51.542;7.314;2022-10-30T15:21:52;20.80;97.50
14006;DHT22;7078;51.542;7.314;2022-10-30T15:24:21;20.70;99.00
14006;DHT22;7078;51.542;7.314;2022-10-30T15:26:49;20.70;99.90
14006;DHT22;7078;51.542;7.314;2022-10-30T15:29:34;20.60;99.90
14006;DHT22;7078;51.542;7.314;2022-10-30T15:32:03;20.50;99.90
14006;DHT22;7078;51.542;7.314;2022-10-30T15:34:31;20.40;99.90
14006;DHT22;7078;51.542;7.314;2022-10-30T15:36:57;20.40;99.90
14006;DHT22;7078;51.542;7.314;2022-10-30T15:39:24;20.30;99.90
14006;DHT22;7078;51.542;7.314;2022-10-30T15:41:53;20.30;99.90
14006;DHT22;7078;51.542;7.314;2022-10-30T15:44:24;20.20;99.90
14006;DHT22;7078;51.542;7.314;2022-10-30T15:46:53;20.10;99.90
14006;DHT22;7078;51.542;7.314;2022-10-30T15:49:34;20.00;99.90
14006;DHT22;7078;51.542;7.314;2022-10-30T15:52:03;19.90;99.90
14006;DHT22;7078;51.542;7.314;2022-10-30T15:54:30;19.80;99.90
14006;DHT22;7078;51.542;7.314;2022-10-30T15:56:58;19.70;99.90
14006;DHT22;7078;51.542;7.314;2022-10-30T15:59:28;19.60;99.90
14006;DHT22;7078;51.542;7.314;2022-10-30T16:01:55;19.60;99.90
14006;DHT22;7078;51.542;7.314;2022-10-30T16:04:23;19.50;99.90
14006;DHT22;7078;51.542;7.314;2022-10-30T16:06:55;19.50;99.90
14006;DHT22;7078;51.542;7.314;2022-10-30T16:09:22;19.40;99.90
14006;DHT22;7078;51.542;7.314;2022-10-30T16:11:50;19.20;99.90
14006;DHT22;7078;51.542;7.314;2022-10-30T16:14:21;19.20;99.90
14006;DHT22;7078;51.542;7.314;2022-10-30T16:16:48;19.20;99.90
14006;DHT22;7078;51.542;7.314;2022-10-30T16:19:28;19.00;99.90
14006;DHT22;7078;51.542;7.314;2022-10-30T16:21:55;18.90;99.90
14006;DHT22;7078;51.542;7.314;2022-10-30T16:24:26;18.80;99.90
14006;DHT22;7078;51.542;7.314;2022-10-30T16:29:31;18.60;99.90
14006;DHT22;7078;51.542;7.314;2022-10-30T16:31:58;18.50;99.90
14006;DHT22;7078;51.542;7.314;2022-10-30T16:34:27;18.50;99.90
14006;DHT22;7078;51.542;7.314;2022-10-30T16:37:00;18.40;99.90
14006;DHT22;7078;51.542;7.314;2022-10-30T16:39:27;18.40;99.90
14006;DHT22;7078;51.542;7.314;2022-10-30T16:41:57;18.30;99.90
14006;DHT22;7078;51.542;7.314;2022-10-30T16:44:31;18.20;99.90
14006;DHT22;7078;51.542;7.314;2022-10-30T16:47:08;18.20;99.90
14006;DHT22;7078;51.542;7.314;2022-10-30T16:49:53;18.10;99.90
14006;DHT22;7078;51.542;7.314;2022-10-30T16:52:24;17.90;99.90
14006;DHT22;7078;51.542;7.314;2022-10-30T16:55:05;17.90;99.90
14006;DHT22;7078;51.542;7.314;2022-10-30T16:57:35;17.80;99.90
14006;DHT22;7078;51.542;7.314;2022-10-30T17:00:03;17.80;99.90
14006;DHT22;7078;51.542;7.314;2022-10-30T17:02:32;17.80;99.90
14006;DHT22;7078;51.542;7.314;2022-10-30T17:05:22;17.70;99.90
14006;DHT22;7078;51.542;7.314;2022-10-30T17:08:11;17.70;99.90
14006;DHT22;7078;51.542;7.314;2022-10-30T17:11:04;17.70;99.90
14006;DHT22;7078;51.542;7.314;2022-10-30T17:13:35;17.50;99.90
14006;DHT22;7078;51.542;7.314;2022-10-30T17:16:21;17.50;99.90
14006;DHT22;7078;51.542;7.314;2022-10-30T17:18:47;17.50;99.90
14006;DHT22;7078;51.542;7.314;2022-10-30T17:23:59;17.30;99.90
14006;DHT22;7078;51.542;7.314;2022-10-30T17:26:27;17.10;99.90
14006;DHT22;7078;51.542;7.314;2022-10-30T17:28:53;17.10;99.90
14006;DHT22;7078;51.542;7.314;2022-10-30T17:36:37;16.90;99.90
14006;DHT22;7078;51.542;7.314;2022-10-30T17:39:02;16.90;99.90
14006;DHT22;7078;51.542;7.314;2022-10-30T17:41:28;16.80;99.90
14006;DHT22;7078;51.542;7.314;2022-10-30T17:43:55;16.80;99.90
14006;DHT22;7078;51.542;7.314;2022-10-30T17:46:21;16.80;99.90
14006;DHT22;7078;51.542;7.314;2022-10-30T17:48:48;16.80;99.90
14006;DHT22;7078;51.542;7.314;2022-10-30T17:51:15;16.70;99.90
14006;DHT22;7078;51.542;7.314;2022-10-30T17:53:41;16.80;99.90
14006;DHT22;7078;51.542;7.314;2022-10-30T17:56:10;16.70;99.90
14006;DHT22;7078;51.542;7.314;2022-10-30T17:58:37;16.80;99.90
14006;DHT22;7078;51.542;7.314;2022-10-30T18:01:03;16.80;99.90
14006;DHT22;7078;51.542;7.314;2022-10-30T18:03:28;16.80;99.90
14006;DHT22;7078;51.542;7.314;2022-10-30T18:05:54;16.80;99.90
14006;DHT22;7078;51.542;7.314;2022-10-30T18:08:20;16.80;99.90
14006;DHT22;7078;51.542;7.314;2022-10-30T18:10:45;16.90;99.90
14006;DHT22;7078;51.542;7.314;2022-10-30T18:13:12;16.90;99.90
14006;DHT22;7078;51.542;7.314;2022-10-30T18:15:40;16.90;99.90